Главная страница
METAR-TAF:

METAR-TAF

Аэропорты :

Нальчик, Россия

широта: 43-30-46N, долгота: 043-38-12E, высота над уровнем моря: 445 м

Текущие метеонаблюдения

Эта сводка был подготовлена 23 минут назад, в 07:00 UTC
Ветер 4 Узел от северо-восточный
Температура 20°C
Влажность 37%
Давление 1018 hPa
Видимость 10 км и более

METAR: URMN 290700Z 05002MPS 9999 NSC 20/05 Q1018 R24/010070 NOSIG RMK QFE727

Время: 10:23 (07:23 UTC)

Прогноз

Эта сводка был подготовлена 2 часа и 23 минут назад, в 05:00 UTC
Прогноз действительный с 29-го 06 UTC до 29-го 15 UTC
Ветер 6 Узел от северо-восточный с порывами до 16 Узел
Видимость 10 км и более
Отдельные облака на высоте 2000 фута

TAF: URMN 290500Z 2906/2915 04003G08MPS 9999 SCT020

Метеонаблюдения и прогнозы для более 4000 аэропортов (сводки METAR и TAF).

Имеющиеся станции представлены на карте желтыми и красными точками.

Чтобы увидеть название станции, наведите на нее мышь.

Затем щелкните, чтобы увидеть метеонаблюдения и метеопрогнозы.

Управление картой: чтобы увеличить масштаб, щелкните зеленые кнопки с черным крестиком; чтобы уменьшить масштаб, щелкните зеленую кнопку с тире; для просмотра соседних карт щелкайте зеленые стрелки.


METAR-TAF: